createdAt,value
2019-03-10T00:01:41.001Z,30.70
2019-03-10T00:04:24.995Z,25.27
2019-03-10T00:07:08.358Z,23.93
2019-03-10T00:09:49.828Z,24.60
2019-03-10T00:12:31.758Z,27.17
2019-03-10T00:15:14.446Z,29.50
2019-03-10T00:17:56.251Z,29.90
2019-03-10T00:20:40.854Z,27.43
2019-03-10T00:23:23.070Z,28.20
2019-03-10T00:26:05.019Z,22.47
2019-03-10T00:28:47.241Z,20.40
2019-03-10T00:31:29.446Z,20.83
2019-03-10T00:34:11.430Z,24.10
2019-03-10T00:36:53.673Z,33.17
2019-03-10T00:39:35.967Z,25.47
2019-03-10T00:42:18.068Z,21.20
2019-03-10T00:45:02.142Z,26.37
2019-03-10T00:47:44.457Z,24.23
2019-03-10T00:50:27.607Z,24.47
2019-03-10T00:53:09.799Z,19.30
2019-03-10T00:55:51.862Z,17.07
2019-03-10T00:58:22.137Z,19.30
2019-03-10T01:01:04.342Z,21.57
2019-03-10T01:03:46.718Z,23.53
2019-03-10T01:06:28.902Z,29.83
2019-03-10T01:09:10.915Z,26.70
2019-03-10T01:11:53.221Z,22.40
2019-03-10T01:14:23.563Z,25.43
2019-03-10T01:17:06.897Z,25.23
2019-03-10T01:19:48.534Z,24.77
2019-03-10T01:22:30.621Z,25.83
2019-03-10T01:25:12.686Z,23.17
2019-03-10T01:27:54.615Z,21.60
2019-03-10T01:30:36.437Z,27.60
2019-03-10T01:33:20.081Z,22.40
2019-03-10T01:36:01.836Z,24.07
2019-03-10T01:38:43.848Z,25.83
2019-03-10T01:41:28.174Z,25.00
2019-03-10T01:44:10.531Z,20.20
2019-03-10T01:46:52.862Z,25.73
2019-03-10T01:49:35.041Z,24.30
2019-03-10T01:52:16.926Z,21.67
2019-03-10T01:54:59.236Z,20.20
2019-03-10T01:57:41.284Z,24.07
2019-03-10T02:00:23.839Z,24.90
2019-03-10T02:03:05.950Z,16.93
2019-03-10T02:09:10.426Z,24.33
2019-03-10T02:11:52.463Z,18.93
2019-03-10T02:14:34.561Z,22.80
2019-03-10T02:17:17.593Z,20.00
2019-03-10T02:19:59.585Z,23.53
2019-03-10T02:22:41.809Z,34.93
2019-03-10T02:25:23.669Z,23.37
2019-03-10T02:28:05.761Z,22.87
2019-03-10T02:30:47.418Z,19.57
2019-03-10T02:33:30.544Z,25.83
2019-03-10T02:36:14.935Z,20.03
2019-03-10T02:38:56.949Z,16.33
2019-03-10T02:41:39.039Z,20.47
2019-03-10T02:44:20.922Z,20.43
2019-03-10T02:47:03.214Z,21.53
2019-03-10T02:49:47.089Z,16.03
2019-03-10T02:52:29.306Z,23.50
2019-03-10T02:55:11.078Z,18.80
2019-03-10T02:57:53.049Z,18.50
2019-03-10T03:00:35.165Z,16.90
2019-03-10T03:03:17.152Z,16.10
2019-03-10T03:05:59.342Z,18.87
2019-03-10T03:08:41.375Z,18.83
2019-03-10T03:11:23.492Z,22.70
2019-03-10T03:14:05.527Z,17.27
2019-03-10T03:16:47.492Z,15.50
2019-03-10T03:19:29.618Z,18.93
2019-03-10T03:22:11.488Z,22.83
2019-03-10T03:24:53.281Z,22.80
2019-03-10T03:27:36.028Z,22.03
2019-03-10T03:30:18.343Z,19.60
2019-03-10T03:33:01.695Z,19.10
2019-03-10T03:35:44.595Z,23.23
2019-03-10T03:38:26.849Z,18.37
2019-03-10T03:41:08.960Z,15.90
2019-03-10T03:46:49.431Z,14.07
2019-03-10T03:49:31.366Z,14.90
2019-03-10T03:52:13.938Z,12.27
2019-03-10T03:54:56.170Z,18.17
2019-03-10T03:57:38.340Z,16.40
2019-03-10T04:00:20.459Z,16.00
2019-03-10T04:03:02.786Z,11.83
2019-03-10T04:05:44.755Z,13.67
2019-03-10T04:08:26.625Z,10.93
2019-03-10T04:11:08.764Z,14.80
2019-03-10T04:13:50.712Z,15.20
2019-03-10T04:16:32.959Z,8.80
2019-03-10T04:19:14.577Z,12.53
2019-03-10T04:21:57.792Z,10.73
2019-03-10T04:24:39.950Z,13.03
2019-03-10T04:27:10.171Z,14.87
2019-03-10T04:29:40.459Z,13.10
2019-03-10T04:32:29.743Z,15.37
2019-03-10T04:35:11.518Z,12.50
2019-03-10T04:37:53.493Z,12.87
2019-03-10T04:40:35.635Z,16.87
2019-03-10T04:43:17.614Z,15.87
2019-03-10T04:45:59.184Z,19.10
2019-03-10T04:48:41.457Z,18.67
2019-03-10T04:51:23.349Z,19.87
2019-03-10T04:54:06.636Z,14.63
2019-03-10T04:56:59.039Z,16.80
2019-03-10T04:59:46.710Z,20.17
2019-03-10T05:02:28.938Z,14.20
2019-03-10T05:05:11.102Z,13.40
2019-03-10T05:07:53.110Z,17.77
2019-03-10T05:10:35.185Z,15.63
2019-03-10T05:13:17.520Z,20.20
2019-03-10T05:15:59.256Z,20.07
2019-03-10T05:18:41.154Z,16.93
2019-03-10T05:21:24.106Z,16.13
2019-03-10T05:24:06.449Z,21.97
2019-03-10T05:26:48.442Z,20.20
2019-03-10T05:29:30.266Z,22.13
2019-03-10T05:32:12.542Z,22.10
2019-03-10T05:34:54.378Z,21.03
2019-03-10T05:37:36.296Z,22.87
2019-03-10T05:40:21.190Z,22.27
2019-03-10T05:43:04.912Z,22.37
2019-03-10T05:45:46.528Z,18.70
2019-03-10T05:48:28.441Z,17.83
2019-03-10T05:51:10.546Z,20.73
2019-03-10T05:53:51.949Z,19.53
2019-03-10T05:56:36.926Z,22.40
2019-03-10T05:59:18.932Z,24.60
2019-03-10T06:02:00.877Z,28.33
2019-03-10T06:04:42.933Z,24.13
2019-03-10T06:07:24.714Z,19.17
2019-03-10T06:10:08.602Z,28.27
2019-03-10T06:12:50.086Z,27.60
2019-03-10T06:15:35.112Z,27.33
2019-03-10T06:18:16.888Z,18.57
2019-03-10T06:20:58.855Z,19.27
2019-03-10T06:23:40.991Z,23.33
2019-03-10T06:26:23.161Z,21.00
2019-03-10T06:28:58.810Z,21.43
2019-03-10T06:31:48.498Z,27.00
2019-03-10T06:34:30.454Z,19.57
2019-03-10T06:37:13.683Z,21.87
2019-03-10T06:39:55.858Z,21.83
2019-03-10T06:42:37.685Z,19.10
2019-03-10T06:45:19.639Z,26.80
2019-03-10T06:48:01.399Z,20.63
2019-03-10T06:50:31.689Z,27.57
2019-03-10T06:53:20.993Z,25.90
2019-03-10T06:56:03.138Z,26.20
2019-03-10T06:58:45.029Z,25.90
2019-03-10T07:01:26.719Z,29.43
2019-03-10T07:04:08.970Z,24.93
2019-03-10T07:06:51.623Z,26.90
2019-03-10T07:09:34.024Z,20.23
2019-03-10T07:12:16.091Z,16.73
2019-03-10T07:14:58.080Z,17.27
2019-03-10T07:17:40.110Z,19.80
2019-03-10T07:20:21.946Z,15.80
2019-03-10T07:23:05.631Z,22.20
2019-03-10T07:25:50.689Z,17.73
2019-03-10T07:28:35.202Z,18.83
2019-03-10T07:31:27.808Z,12.90
2019-03-10T07:34:28.643Z,13.57
2019-03-10T07:37:29.769Z,11.30
2019-03-10T07:40:37.271Z,7.77
2019-03-10T07:43:32.422Z,8.13
2019-03-10T07:46:34.515Z,9.13
2019-03-10T07:49:35.388Z,10.83
2019-03-10T07:52:32.725Z,6.97
2019-03-10T07:55:34.896Z,4.80
2019-03-10T07:58:24.350Z,4.77
2019-03-10T08:01:25.138Z,5.87
2019-03-10T08:04:26.140Z,6.17
2019-03-10T08:07:26.916Z,3.73
2019-03-10T08:13:28.866Z,4.70
2019-03-10T08:16:06.545Z,2.50
2019-03-10T08:18:54.068Z,3.53
2019-03-10T08:22:01.519Z,4.47
2019-03-10T08:25:02.003Z,2.73
2019-03-10T08:28:06.094Z,3.37
2019-03-10T08:31:06.898Z,1.90
2019-03-10T08:33:56.153Z,1.53
2019-03-10T08:36:59.475Z,0.50
2019-03-10T08:40:00.619Z,0.40
2019-03-10T08:43:01.323Z,0.70
2019-03-10T08:45:55.176Z,0.53
2019-03-10T08:51:58.841Z,1.43
2019-03-10T08:54:59.906Z,0.67
2019-03-10T08:58:06.938Z,0.50
2019-03-10T09:01:09.975Z,0.40
2019-03-10T09:04:19.858Z,1.10
2019-03-10T09:07:13.628Z,0.97
2019-03-10T09:10:10.579Z,0.57
2019-03-10T09:13:11.490Z,1.40
2019-03-10T09:16:01.314Z,1.27
2019-03-10T09:19:02.569Z,1.23
2019-03-10T09:22:01.515Z,1.87
2019-03-10T09:24:55.951Z,1.10
2019-03-10T09:27:45.153Z,1.10
2019-03-10T09:30:47.095Z,1.73
2019-03-10T09:33:40.827Z,4.23
2019-03-10T09:36:20.083Z,2.93
2019-03-10T09:39:49.173Z,2.43
2019-03-10T09:42:49.682Z,1.93
2019-03-10T09:45:53.392Z,2.27
2019-03-10T09:48:45.791Z,3.57
2019-03-10T09:51:39.544Z,2.20
2019-03-10T09:54:29.119Z,2.00
2019-03-10T09:57:30.659Z,3.73
2019-03-10T10:00:19.187Z,3.43
2019-03-10T10:03:29.059Z,1.20
2019-03-10T10:06:33.471Z,1.80
2019-03-10T10:12:30.560Z,1.60
2019-03-10T10:15:31.939Z,2.50
2019-03-10T10:18:33.363Z,3.37
2019-03-10T10:21:26.732Z,4.83
2019-03-10T10:24:22.415Z,3.30
2019-03-10T10:27:22.935Z,4.47
2019-03-10T10:30:31.485Z,5.43
2019-03-10T10:33:32.756Z,7.53
2019-03-10T10:36:36.590Z,4.13
2019-03-10T10:39:37.858Z,4.33
2019-03-10T10:42:34.747Z,4.50
2019-03-10T10:45:36.722Z,6.17
2019-03-10T10:48:26.316Z,3.20
2019-03-10T10:51:30.031Z,6.27
2019-03-10T10:54:27.019Z,6.60
2019-03-10T10:57:26.321Z,5.90
2019-03-10T11:00:17.434Z,5.80
2019-03-10T11:03:13.222Z,5.93
2019-03-10T11:06:14.042Z,8.60
2019-03-10T11:09:07.182Z,7.50
2019-03-10T11:12:10.870Z,6.73
2019-03-10T11:15:12.271Z,4.27
2019-03-10T11:18:12.986Z,7.80
2019-03-10T11:21:05.326Z,6.90
2019-03-10T11:24:06.183Z,10.90
2019-03-10T11:27:03.770Z,7.73
2019-03-10T11:30:04.913Z,15.10
2019-03-10T11:33:05.821Z,13.03
2019-03-10T11:35:54.946Z,10.30
2019-03-10T11:38:43.112Z,8.13
2019-03-10T11:41:34.077Z,11.80
2019-03-10T11:44:43.304Z,12.37
2019-03-10T11:47:43.782Z,10.80
2019-03-10T11:50:44.568Z,10.77
2019-03-10T11:53:51.490Z,10.90
2019-03-10T11:56:42.162Z,9.87
2019-03-10T11:59:49.219Z,10.60
2019-03-10T12:02:38.766Z,10.13
2019-03-10T12:05:39.144Z,13.37
2019-03-10T12:08:40.481Z,9.07
2019-03-10T12:11:22.759Z,11.43
2019-03-10T12:14:05.066Z,16.43
2019-03-10T12:16:47.069Z,16.83
2019-03-10T12:19:28.989Z,15.97
2019-03-10T12:22:10.979Z,18.77
2019-03-10T12:24:53.043Z,14.70
2019-03-10T12:27:23.533Z,17.10
2019-03-10T12:30:12.913Z,14.17
2019-03-10T12:32:54.966Z,10.53
2019-03-10T12:35:34.002Z,14.10
2019-03-10T12:38:14.374Z,9.90
2019-03-10T12:40:56.382Z,12.13
2019-03-10T12:43:26.617Z,11.07
2019-03-10T12:46:15.882Z,11.03
2019-03-10T12:48:59.750Z,9.13
2019-03-10T12:51:41.942Z,12.27
2019-03-10T12:54:24.156Z,8.37
2019-03-10T12:57:06.183Z,9.03
2019-03-10T12:59:48.920Z,15.90
2019-03-10T13:02:30.939Z,14.07
2019-03-10T13:05:13.338Z,11.40
2019-03-10T13:07:55.624Z,9.90
2019-03-10T13:10:26.162Z,13.30
2019-03-10T13:13:08.202Z,10.87
2019-03-10T13:15:50.127Z,10.30
2019-03-10T13:18:32.199Z,14.03
2019-03-10T13:21:14.460Z,10.13
2019-03-10T13:23:56.742Z,10.30
2019-03-10T13:26:27.199Z,12.73
2019-03-10T13:29:09.253Z,13.70
2019-03-10T13:31:51.331Z,6.77
2019-03-10T13:34:33.883Z,8.47
2019-03-10T13:37:15.909Z,11.87
2019-03-10T13:39:57.836Z,9.17
2019-03-10T13:42:29.714Z,12.70
2019-03-10T13:45:11.843Z,11.00
2019-03-10T13:47:53.406Z,8.50
2019-03-10T13:50:35.353Z,7.97
2019-03-10T13:53:17.418Z,11.77
2019-03-10T13:55:59.654Z,10.53
2019-03-10T13:58:29.979Z,14.10
2019-03-10T14:01:12.135Z,7.33
2019-03-10T14:03:54.009Z,7.67
2019-03-10T14:06:36.136Z,5.67
2019-03-10T14:09:18.355Z,7.37
2019-03-10T14:12:00.411Z,7.67
2019-03-10T14:14:31.067Z,7.20
2019-03-10T14:17:20.422Z,7.10
2019-03-10T14:20:01.885Z,7.77
2019-03-10T14:22:43.709Z,8.40
2019-03-10T14:25:14.654Z,4.93
2019-03-10T14:27:56.262Z,3.40
2019-03-10T14:30:38.300Z,4.77
2019-03-10T14:33:20.195Z,6.27
2019-03-10T14:36:02.472Z,2.37
2019-03-10T14:38:32.750Z,2.67
2019-03-10T14:41:14.628Z,3.27
2019-03-10T14:43:57.026Z,3.27
2019-03-10T14:46:38.982Z,2.17
2019-03-10T14:49:23.534Z,3.77
2019-03-10T14:52:04.818Z,3.03
2019-03-10T14:54:50.029Z,1.83
2019-03-10T14:57:32.249Z,3.70
2019-03-10T15:00:14.698Z,2.93
2019-03-10T15:02:56.391Z,5.30
2019-03-10T15:05:38.615Z,3.20
2019-03-10T15:08:20.291Z,1.37
2019-03-10T15:11:02.240Z,2.10
2019-03-10T15:13:44.590Z,3.63
2019-03-10T15:16:26.791Z,3.80
2019-03-10T15:19:08.898Z,1.63
2019-03-10T15:21:51.152Z,1.80
2019-03-10T15:24:33.077Z,2.13
2019-03-10T15:27:23.067Z,2.60
2019-03-10T15:29:48.900Z,2.43
2019-03-10T15:32:19.432Z,1.27
2019-03-10T15:35:04.933Z,2.77
2019-03-10T15:37:46.742Z,5.47
2019-03-10T15:40:28.914Z,3.47
2019-03-10T15:43:10.855Z,1.37
2019-03-10T15:45:52.741Z,2.60
2019-03-10T15:48:35.070Z,1.43
2019-03-10T15:51:17.015Z,3.93
2019-03-10T15:53:59.238Z,3.27
2019-03-10T15:56:41.138Z,2.20
2019-03-10T15:59:23.361Z,2.83
2019-03-10T16:02:06.425Z,2.97
2019-03-10T16:04:48.324Z,3.60
2019-03-10T16:07:30.446Z,2.10
2019-03-10T16:10:13.349Z,3.47
2019-03-10T16:12:55.023Z,3.03
2019-03-10T16:15:25.404Z,4.13
2019-03-10T16:18:15.167Z,2.93
2019-03-10T16:20:45.464Z,2.20
2019-03-10T16:23:15.706Z,2.40
2019-03-10T16:25:58.022Z,3.40
2019-03-10T16:28:41.827Z,5.30
2019-03-10T16:31:24.217Z,1.20
2019-03-10T16:34:06.264Z,0.80
2019-03-10T16:36:48.147Z,2.10
2019-03-10T16:39:29.582Z,1.23
2019-03-10T16:42:13.667Z,2.93
2019-03-10T16:44:56.611Z,1.20
2019-03-10T16:47:38.036Z,2.67
2019-03-10T16:50:20.147Z,1.07
2019-03-10T16:53:02.459Z,2.33
2019-03-10T16:55:44.162Z,0.80
2019-03-10T16:58:26.629Z,1.40
2019-03-10T17:01:08.875Z,1.53
2019-03-10T17:03:50.619Z,0.97
2019-03-10T17:06:32.823Z,2.07
2019-03-10T17:09:14.823Z,2.03
2019-03-10T17:11:56.902Z,2.83
2019-03-10T17:14:39.063Z,1.33
2019-03-10T17:17:21.301Z,3.43
2019-03-10T17:20:03.493Z,2.00
2019-03-10T17:22:45.464Z,2.47
2019-03-10T17:25:27.327Z,0.97
2019-03-10T17:28:09.190Z,1.57
2019-03-10T17:30:52.391Z,1.30
2019-03-10T17:33:34.612Z,1.57
2019-03-10T17:36:16.804Z,1.83
2019-03-10T17:38:59.040Z,2.10
2019-03-10T17:41:41.291Z,1.57
2019-03-10T17:44:24.110Z,1.30
2019-03-10T17:47:08.313Z,2.40
2019-03-10T17:49:50.115Z,2.30
2019-03-10T17:52:33.134Z,1.90
2019-03-10T17:55:15.168Z,2.07
2019-03-10T17:57:57.284Z,2.43
2019-03-10T18:00:39.927Z,3.57
2019-03-10T18:03:21.499Z,4.23
2019-03-10T18:06:03.475Z,2.43
2019-03-10T18:08:45.830Z,1.67
2019-03-10T18:11:27.934Z,2.60
2019-03-10T18:14:10.090Z,3.33
2019-03-10T18:16:52.486Z,3.43
2019-03-10T18:19:35.272Z,3.20
2019-03-10T18:22:18.487Z,3.23
2019-03-10T18:25:00.684Z,3.80
2019-03-10T18:27:42.430Z,2.40
2019-03-10T18:30:24.553Z,4.87
2019-03-10T18:33:06.550Z,3.37
2019-03-10T18:35:48.643Z,4.27
2019-03-10T18:38:30.516Z,3.17
2019-03-10T18:41:13.798Z,6.50
2019-03-10T18:43:55.873Z,4.73
2019-03-10T18:46:38.116Z,3.87
2019-03-10T18:49:20.442Z,3.63
2019-03-10T18:51:50.785Z,5.37
2019-03-10T18:54:40.044Z,3.93
2019-03-10T18:57:21.635Z,3.20
2019-03-10T19:00:03.759Z,6.60
2019-03-10T19:02:45.659Z,5.07
2019-03-10T19:05:28.756Z,5.27
2019-03-10T19:08:11.028Z,3.50
2019-03-10T19:10:53.177Z,6.17
2019-03-10T19:13:35.491Z,4.80
2019-03-10T19:16:05.841Z,3.50
2019-03-10T19:18:47.796Z,1.90
2019-03-10T19:21:29.506Z,6.03
2019-03-10T19:24:11.544Z,3.63
2019-03-10T19:26:53.646Z,3.30
2019-03-10T19:29:35.555Z,5.43
2019-03-10T19:32:17.436Z,4.07
2019-03-10T19:34:59.443Z,3.50
2019-03-10T19:37:41.493Z,2.53
2019-03-10T19:40:24.709Z,2.27
2019-03-10T19:43:06.479Z,3.30
2019-03-10T19:45:48.489Z,3.87
2019-03-10T19:48:30.822Z,3.63
2019-03-10T19:51:12.292Z,3.47
2019-03-10T19:53:54.307Z,4.43
2019-03-10T19:56:36.704Z,6.33
2019-03-10T19:59:18.700Z,2.53
2019-03-10T20:01:50.602Z,4.60
2019-03-10T20:04:40.086Z,2.90
2019-03-10T20:07:21.962Z,4.07
2019-03-10T20:10:03.979Z,6.20
2019-03-10T20:12:45.858Z,6.10
2019-03-10T20:15:28.304Z,2.73
2019-03-10T20:18:10.175Z,6.33
2019-03-10T20:20:54.931Z,3.47
2019-03-10T20:23:36.421Z,4.20
2019-03-10T20:26:06.936Z,2.27
2019-03-10T20:28:56.336Z,3.97
2019-03-10T20:31:38.110Z,4.50
2019-03-10T20:34:20.319Z,2.10
2019-03-10T20:37:03.806Z,3.30
2019-03-10T20:39:45.790Z,3.50
2019-03-10T20:42:27.778Z,3.23
2019-03-10T20:45:09.746Z,4.97
2019-03-10T20:47:52.162Z,4.03
2019-03-10T20:50:34.352Z,5.27
2019-03-10T20:53:16.551Z,3.23
2019-03-10T20:55:58.714Z,3.67
2019-03-10T20:58:40.998Z,3.73
2019-03-10T21:01:11.431Z,2.73
2019-03-10T21:04:00.740Z,4.77
2019-03-10T21:06:43.926Z,1.50
2019-03-10T21:09:14.212Z,2.10
2019-03-10T21:11:56.109Z,1.37
2019-03-10T21:14:38.006Z,2.20
2019-03-10T21:17:20.049Z,2.57
2019-03-10T21:20:02.143Z,1.87
2019-03-10T21:22:44.393Z,2.43
2019-03-10T21:25:26.440Z,2.17
2019-03-10T21:28:08.849Z,2.17
2019-03-10T21:30:50.812Z,2.13
2019-03-10T21:33:33.047Z,3.37
2019-03-10T21:36:15.029Z,2.67
2019-03-10T21:38:56.698Z,3.93
2019-03-10T21:41:38.944Z,2.43
2019-03-10T21:44:26.451Z,3.90
2019-03-10T21:46:53.437Z,3.57
2019-03-10T21:49:35.089Z,3.90
2019-03-10T21:52:19.110Z,2.43
2019-03-10T21:55:01.413Z,6.40
2019-03-10T21:57:43.668Z,5.27
2019-03-10T22:00:26.195Z,8.00
2019-03-10T22:03:08.358Z,7.40
2019-03-10T22:05:50.431Z,6.60
2019-03-10T22:08:32.675Z,8.07
2019-03-10T22:11:14.622Z,10.50
2019-03-10T22:13:56.431Z,6.03
2019-03-10T22:16:38.169Z,9.87
2019-03-10T22:19:22.992Z,8.87
2019-03-10T22:22:04.156Z,14.03
2019-03-10T22:24:46.205Z,12.13
2019-03-10T22:27:29.617Z,7.90
2019-03-10T22:30:11.928Z,9.37
2019-03-10T22:32:54.356Z,11.40
2019-03-10T22:35:36.145Z,12.23
2019-03-10T22:38:18.330Z,12.13
2019-03-10T22:41:00.014Z,10.60
2019-03-10T22:43:30.321Z,9.77
2019-03-10T22:46:22.819Z,14.30
2019-03-10T22:49:04.466Z,9.67
2019-03-10T22:51:46.448Z,7.73
2019-03-10T22:54:28.502Z,10.03
2019-03-10T22:56:58.755Z,10.37
2019-03-10T22:59:41.158Z,9.33
2019-03-10T23:02:23.095Z,10.07
2019-03-10T23:05:05.068Z,14.10
2019-03-10T23:07:47.354Z,10.53
2019-03-10T23:10:30.509Z,11.00
2019-03-10T23:13:12.465Z,9.67
2019-03-10T23:15:54.591Z,10.33
2019-03-10T23:18:36.520Z,9.63
2019-03-10T23:21:18.474Z,12.37
2019-03-10T23:24:00.589Z,12.00
2019-03-10T23:26:42.547Z,13.43
2019-03-10T23:29:24.750Z,9.43
2019-03-10T23:32:07.004Z,13.00
2019-03-10T23:34:49.177Z,8.57
2019-03-10T23:37:33.078Z,13.77
2019-03-10T23:40:15.190Z,9.13
2019-03-10T23:42:45.497Z,12.03
2019-03-10T23:45:15.786Z,12.47
2019-03-10T23:48:05.027Z,14.67
2019-03-10T23:50:46.992Z,11.80
2019-03-10T23:53:29.067Z,16.37
2019-03-10T23:56:11.138Z,12.87
2019-03-10T23:58:53.459Z,13.60
